KCMI/CMI METAR and TAF weather

Enter ICAO airport designator
Station Type Date Time Source
KCMI METAR 2019/08/19 00:53 UTC NOAA

KCMI 190053Z 19004KT 9SM CLR 23/23 A2991 RMK AO2 SLP121 T02330228


Station Type Date Time Source
KCMI Decoded METAR 2019/08/19 00:53 UTC NOAA

Station name not available
Aug 18, 2019 - 08:53 PM EDT / 2019.08.19 0053 UTC
Wind: from the S (190 degrees) at 5 MPH (4 KT):0
Visibility: 9 mile(s):0
Sky conditions: clear
Temperature: 73.9 F (23.3 C)
Dew Point: 73.0 F (22.8 C)
Relative Humidity: 97%
Pressure (altimeter): 29.91 in. Hg (1012 hPa)
ob: KCMI 190053Z 19004KT 9SM CLR 23/23 A2991 RMK AO2 SLP121 T02330228
cycle: 1

Station Type Date Time Source
KCMI TAF 2019/08/18 22:12 UTC NOAA

TAF
AMD KCMI 182211Z 1822/1918 VRB05KT P6SM SCT045 BKN060
FM190200 19006KT P6SM SCT050 BKN150
FM191000 VRB04KT 4SM BR VCSH BKN040
FM191500 22005KT P6SM SCT025 BKN035

Example: see airport list